sensor_id;sensor_type;location;lat;lon;timestamp;P1;durP1;ratioP1;P2;durP2;ratioP2
9563;SDS011;4820;50.870;4.702;2023-03-31T00:00:51;7.15;;;2.90;;
9563;SDS011;4820;50.870;4.702;2023-03-31T00:03:18;9.77;;;2.95;;
9563;SDS011;4820;50.870;4.702;2023-03-31T00:05:53;9.35;;;2.95;;
9563;SDS011;4820;50.870;4.702;2023-03-31T00:08:23;13.70;;;3.70;;
9563;SDS011;4820;50.870;4.702;2023-03-31T00:10:56;10.07;;;3.78;;
9563;SDS011;4820;50.870;4.702;2023-03-31T00:13:24;10.85;;;3.28;;
9563;SDS011;4820;50.870;4.702;2023-03-31T00:15:54;11.25;;;3.72;;
9563;SDS011;4820;50.870;4.702;2023-03-31T00:18:25;10.52;;;3.50;;
9563;SDS011;4820;50.870;4.702;2023-03-31T00:20:52;11.10;;;3.13;;
9563;SDS011;4820;50.870;4.702;2023-03-31T00:23:18;10.23;;;3.03;;
9563;SDS011;4820;50.870;4.702;2023-03-31T00:25:53;11.82;;;3.15;;
9563;SDS011;4820;50.870;4.702;2023-03-31T00:28:19;9.57;;;3.00;;
9563;SDS011;4820;50.870;4.702;2023-03-31T00:30:45;9.43;;;3.30;;
9563;SDS011;4820;50.870;4.702;2023-03-31T00:33:12;12.18;;;3.20;;
9563;SDS011;4820;50.870;4.702;2023-03-31T00:35:38;11.70;;;3.47;;
9563;SDS011;4820;50.870;4.702;2023-03-31T00:38:04;13.55;;;3.15;;
9563;SDS011;4820;50.870;4.702;2023-03-31T00:40:33;11.05;;;3.67;;
9563;SDS011;4820;50.870;4.702;2023-03-31T00:42:59;10.85;;;3.42;;
9563;SDS011;4820;50.870;4.702;2023-03-31T00:45:29;8.80;;;3.35;;
9563;SDS011;4820;50.870;4.702;2023-03-31T00:48:05;19.35;;;3.40;;
9563;SDS011;4820;50.870;4.702;2023-03-31T00:50:48;13.65;;;3.22;;
9563;SDS011;4820;50.870;4.702;2023-03-31T00:53:21;13.07;;;3.95;;
9563;SDS011;4820;50.870;4.702;2023-03-31T00:55:52;11.23;;;3.17;;
9563;SDS011;4820;50.870;4.702;2023-03-31T00:58:20;10.43;;;3.17;;
9563;SDS011;4820;50.870;4.702;2023-03-31T01:00:52;11.68;;;3.42;;
9563;SDS011;4820;50.870;4.702;2023-03-31T01:03:21;11.13;;;3.47;;
9563;SDS011;4820;50.870;4.702;2023-03-31T01:05:49;12.73;;;2.95;;
9563;SDS011;4820;50.870;4.702;2023-03-31T01:08:18;11.10;;;3.47;;
9563;SDS011;4820;50.870;4.702;2023-03-31T01:10:50;12.75;;;3.20;;
9563;SDS011;4820;50.870;4.702;2023-03-31T01:13:22;12.07;;;3.05;;
9563;SDS011;4820;50.870;4.702;2023-03-31T01:15:48;10.85;;;3.58;;
9563;SDS011;4820;50.870;4.702;2023-03-31T01:18:15;11.63;;;3.10;;
9563;SDS011;4820;50.870;4.702;2023-03-31T01:45:21;7.82;;;2.90;;
9563;SDS011;4820;50.870;4.702;2023-03-31T01:47:45;9.57;;;2.75;;
9563;SDS011;4820;50.870;4.702;2023-03-31T01:56:40;8.32;;;3.05;;
9563;SDS011;4820;50.870;4.702;2023-03-31T01:59:21;12.70;;;3.38;;
9563;SDS011;4820;50.870;4.702;2023-03-31T02:01:55;7.90;;;2.50;;
9563;SDS011;4820;50.870;4.702;2023-03-31T02:04:29;6.85;;;2.83;;
9563;SDS011;4820;50.870;4.702;2023-03-31T02:07:06;8.05;;;2.45;;
9563;SDS011;4820;50.870;4.702;2023-03-31T02:09:40;7.95;;;2.45;;
9563;SDS011;4820;50.870;4.702;2023-03-31T02:12:10;8.65;;;2.67;;
9563;SDS011;4820;50.870;4.702;2023-03-31T02:14:38;7.13;;;2.47;;
9563;SDS011;4820;50.870;4.702;2023-03-31T02:17:07;7.65;;;2.63;;
9563;SDS011;4820;50.870;4.702;2023-03-31T02:19:39;6.65;;;2.13;;
9563;SDS011;4820;50.870;4.702;2023-03-31T02:22:07;9.88;;;2.75;;
9563;SDS011;4820;50.870;4.702;2023-03-31T02:24:34;6.03;;;2.20;;
9563;SDS011;4820;50.870;4.702;2023-03-31T02:27:04;9.35;;;2.33;;
9563;SDS011;4820;50.870;4.702;2023-03-31T02:29:33;7.53;;;2.22;;
9563;SDS011;4820;50.870;4.702;2023-03-31T02:34:29;6.32;;;2.30;;
9563;SDS011;4820;50.870;4.702;2023-03-31T02:36:55;7.03;;;2.08;;
9563;SDS011;4820;50.870;4.702;2023-03-31T02:39:27;6.40;;;2.03;;
9563;SDS011;4820;50.870;4.702;2023-03-31T02:41:58;4.88;;;2.03;;
9563;SDS011;4820;50.870;4.702;2023-03-31T02:44:31;6.10;;;2.03;;
9563;SDS011;4820;50.870;4.702;2023-03-31T02:46:57;5.05;;;2.25;;
9563;SDS011;4820;50.870;4.702;2023-03-31T02:49:23;5.50;;;1.85;;
9563;SDS011;4820;50.870;4.702;2023-03-31T03:16:51;3.20;;;1.52;;
9563;SDS011;4820;50.870;4.702;2023-03-31T03:19:23;4.25;;;1.63;;
9563;SDS011;4820;50.870;4.702;2023-03-31T03:21:48;5.07;;;2.05;;
9563;SDS011;4820;50.870;4.702;2023-03-31T03:24:16;7.45;;;2.00;;
9563;SDS011;4820;50.870;4.702;2023-03-31T03:26:42;4.60;;;1.77;;
9563;SDS011;4820;50.870;4.702;2023-03-31T03:29:11;5.90;;;1.88;;
9563;SDS011;4820;50.870;4.702;2023-03-31T03:31:39;6.07;;;1.75;;
9563;SDS011;4820;50.870;4.702;2023-03-31T03:34:06;5.35;;;2.08;;
9563;SDS011;4820;50.870;4.702;2023-03-31T03:36:34;9.88;;;2.40;;
9563;SDS011;4820;50.870;4.702;2023-03-31T03:39:02;4.88;;;1.77;;
9563;SDS011;4820;50.870;4.702;2023-03-31T03:41:29;8.45;;;2.10;;
9563;SDS011;4820;50.870;4.702;2023-03-31T03:43:58;6.03;;;2.40;;
9563;SDS011;4820;50.870;4.702;2023-03-31T03:46:24;4.28;;;1.70;;
9563;SDS011;4820;50.870;4.702;2023-03-31T03:48:50;6.05;;;1.90;;
9563;SDS011;4820;50.870;4.702;2023-03-31T03:51:16;4.60;;;1.70;;
9563;SDS011;4820;50.870;4.702;2023-03-31T03:53:41;6.30;;;1.70;;
9563;SDS011;4820;50.870;4.702;2023-03-31T03:56:07;8.20;;;1.92;;
9563;SDS011;4820;50.870;4.702;2023-03-31T03:58:33;5.68;;;2.08;;
9563;SDS011;4820;50.870;4.702;2023-03-31T04:00:59;6.95;;;2.25;;
9563;SDS011;4820;50.870;4.702;2023-03-31T04:03:25;8.63;;;2.03;;
9563;SDS011;4820;50.870;4.702;2023-03-31T04:05:51;7.00;;;2.22;;
9563;SDS011;4820;50.870;4.702;2023-03-31T04:08:17;7.13;;;1.90;;
9563;SDS011;4820;50.870;4.702;2023-03-31T04:10:46;7.00;;;2.45;;
9563;SDS011;4820;50.870;4.702;2023-03-31T04:13:13;8.30;;;2.25;;
9563;SDS011;4820;50.870;4.702;2023-03-31T04:15:43;7.88;;;2.40;;
9563;SDS011;4820;50.870;4.702;2023-03-31T04:18:09;11.65;;;2.85;;
9563;SDS011;4820;50.870;4.702;2023-03-31T04:20:51;6.45;;;2.50;;
9563;SDS011;4820;50.870;4.702;2023-03-31T04:23:30;7.93;;;2.55;;
9563;SDS011;4820;50.870;4.702;2023-03-31T04:25:57;6.63;;;2.55;;
9563;SDS011;4820;50.870;4.702;2023-03-31T04:28:23;7.70;;;1.95;;
9563;SDS011;4820;50.870;4.702;2023-03-31T04:30:51;5.30;;;2.10;;
9563;SDS011;4820;50.870;4.702;2023-03-31T04:33:20;6.75;;;1.98;;
9563;SDS011;4820;50.870;4.702;2023-03-31T04:35:45;6.85;;;2.13;;
9563;SDS011;4820;50.870;4.702;2023-03-31T04:38:17;4.90;;;1.90;;
9563;SDS011;4820;50.870;4.702;2023-03-31T04:40:45;4.15;;;1.80;;
9563;SDS011;4820;50.870;4.702;2023-03-31T04:43:12;6.78;;;2.13;;
9563;SDS011;4820;50.870;4.702;2023-03-31T04:45:38;6.88;;;2.22;;
9563;SDS011;4820;50.870;4.702;2023-03-31T04:48:04;6.68;;;2.22;;
9563;SDS011;4820;50.870;4.702;2023-03-31T04:50:30;10.60;;;3.08;;
9563;SDS011;4820;50.870;4.702;2023-03-31T04:52:56;7.38;;;2.40;;
9563;SDS011;4820;50.870;4.702;2023-03-31T04:55:22;7.93;;;2.50;;
9563;SDS011;4820;50.870;4.702;2023-03-31T04:57:48;9.30;;;2.50;;
9563;SDS011;4820;50.870;4.702;2023-03-31T05:00:14;8.45;;;2.33;;
9563;SDS011;4820;50.870;4.702;2023-03-31T05:02:40;7.65;;;2.17;;
9563;SDS011;4820;50.870;4.702;2023-03-31T05:05:06;7.10;;;2.30;;
9563;SDS011;4820;50.870;4.702;2023-03-31T05:07:32;9.20;;;2.50;;
9563;SDS011;4820;50.870;4.702;2023-03-31T05:09:57;6.72;;;2.72;;
9563;SDS011;4820;50.870;4.702;2023-03-31T05:12:23;8.93;;;2.45;;
9563;SDS011;4820;50.870;4.702;2023-03-31T05:14:50;8.50;;;2.95;;
9563;SDS011;4820;50.870;4.702;2023-03-31T05:17:16;9.55;;;2.45;;
9563;SDS011;4820;50.870;4.702;2023-03-31T05:19:42;7.43;;;2.83;;
9563;SDS011;4820;50.870;4.702;2023-03-31T05:22:08;9.15;;;3.03;;
9563;SDS011;4820;50.870;4.702;2023-03-31T05:24:34;9.45;;;2.55;;
9563;SDS011;4820;50.870;4.702;2023-03-31T05:27:00;8.50;;;2.78;;
9563;SDS011;4820;50.870;4.702;2023-03-31T05:29:26;8.82;;;2.50;;
9563;SDS011;4820;50.870;4.702;2023-03-31T05:31:51;7.75;;;2.40;;
9563;SDS011;4820;50.870;4.702;2023-03-31T05:34:18;8.55;;;2.67;;
9563;SDS011;4820;50.870;4.702;2023-03-31T05:36:45;12.60;;;2.83;;
9563;SDS011;4820;50.870;4.702;2023-03-31T05:39:14;7.22;;;2.53;;
9563;SDS011;4820;50.870;4.702;2023-03-31T05:41:40;8.57;;;2.65;;
9563;SDS011;4820;50.870;4.702;2023-03-31T05:44:05;10.50;;;2.88;;
9563;SDS011;4820;50.870;4.702;2023-03-31T05:46:31;9.18;;;2.70;;
9563;SDS011;4820;50.870;4.702;2023-03-31T05:48:58;7.72;;;2.95;;
9563;SDS011;4820;50.870;4.702;2023-03-31T05:51:23;8.60;;;2.80;;
9563;SDS011;4820;50.870;4.702;2023-03-31T05:53:49;12.05;;;2.65;;
9563;SDS011;4820;50.870;4.702;2023-03-31T05:56:15;8.18;;;2.58;;
9563;SDS011;4820;50.870;4.702;2023-03-31T05:58:41;8.43;;;2.75;;
9563;SDS011;4820;50.870;4.702;2023-03-31T06:01:08;10.55;;;2.30;;
9563;SDS011;4820;50.870;4.702;2023-03-31T06:03:36;8.13;;;2.90;;
9563;SDS011;4820;50.870;4.702;2023-03-31T06:06:05;7.68;;;2.63;;
9563;SDS011;4820;50.870;4.702;2023-03-31T06:08:37;9.63;;;2.42;;
9563;SDS011;4820;50.870;4.702;2023-03-31T06:11:03;8.98;;;2.50;;
9563;SDS011;4820;50.870;4.702;2023-03-31T06:13:30;8.73;;;3.08;;
9563;SDS011;4820;50.870;4.702;2023-03-31T06:15:56;7.13;;;2.75;;
9563;SDS011;4820;50.870;4.702;2023-03-31T06:18:23;10.05;;;3.00;;
9563;SDS011;4820;50.870;4.702;2023-03-31T06:20:52;6.22;;;2.35;;
9563;SDS011;4820;50.870;4.702;2023-03-31T06:23:20;9.75;;;2.88;;
9563;SDS011;4820;50.870;4.702;2023-03-31T06:25:46;6.72;;;2.50;;
9563;SDS011;4820;50.870;4.702;2023-03-31T06:28:12;11.32;;;2.97;;
9563;SDS011;4820;50.870;4.702;2023-03-31T06:30:38;12.32;;;3.88;;
9563;SDS011;4820;50.870;4.702;2023-03-31T06:33:05;8.30;;;3.17;;
9563;SDS011;4820;50.870;4.702;2023-03-31T06:35:31;11.85;;;3.40;;
9563;SDS011;4820;50.870;4.702;2023-03-31T06:37:57;10.57;;;2.90;;
9563;SDS011;4820;50.870;4.702;2023-03-31T06:40:23;10.98;;;2.90;;
9563;SDS011;4820;50.870;4.702;2023-03-31T06:42:48;10.45;;;3.05;;
9563;SDS011;4820;50.870;4.702;2023-03-31T06:45:15;9.38;;;2.75;;
9563;SDS011;4820;50.870;4.702;2023-03-31T06:47:41;7.50;;;2.97;;
9563;SDS011;4820;50.870;4.702;2023-03-31T06:50:07;8.05;;;2.95;;
9563;SDS011;4820;50.870;4.702;2023-03-31T06:52:34;9.80;;;2.67;;
9563;SDS011;4820;50.870;4.702;2023-03-31T06:55:00;9.00;;;3.30;;
9563;SDS011;4820;50.870;4.702;2023-03-31T06:57:26;9.18;;;3.28;;
9563;SDS011;4820;50.870;4.702;2023-03-31T06:59:54;11.70;;;3.00;;
9563;SDS011;4820;50.870;4.702;2023-03-31T07:02:19;13.63;;;3.17;;
9563;SDS011;4820;50.870;4.702;2023-03-31T07:04:45;10.57;;;3.03;;
9563;SDS011;4820;50.870;4.702;2023-03-31T07:07:11;9.88;;;3.03;;
9563;SDS011;4820;50.870;4.702;2023-03-31T07:09:38;9.88;;;3.38;;
9563;SDS011;4820;50.870;4.702;2023-03-31T07:12:03;10.48;;;3.33;;
9563;SDS011;4820;50.870;4.702;2023-03-31T07:14:32;11.68;;;3.40;;
9563;SDS011;4820;50.870;4.702;2023-03-31T07:16:59;10.90;;;3.47;;
9563;SDS011;4820;50.870;4.702;2023-03-31T07:19:24;9.75;;;3.28;;
9563;SDS011;4820;50.870;4.702;2023-03-31T07:21:50;10.10;;;3.25;;
9563;SDS011;4820;50.870;4.702;2023-03-31T07:24:18;11.40;;;3.60;;
9563;SDS011;4820;50.870;4.702;2023-03-31T07:26:44;10.95;;;3.35;;
9563;SDS011;4820;50.870;4.702;2023-03-31T07:29:10;10.20;;;3.20;;
9563;SDS011;4820;50.870;4.702;2023-03-31T07:31:35;10.68;;;3.17;;
9563;SDS011;4820;50.870;4.702;2023-03-31T07:34:01;11.77;;;3.45;;
9563;SDS011;4820;50.870;4.702;2023-03-31T07:36:30;11.05;;;2.92;;
9563;SDS011;4820;50.870;4.702;2023-03-31T07:38:56;11.45;;;3.55;;
9563;SDS011;4820;50.870;4.702;2023-03-31T07:41:22;10.43;;;3.42;;
9563;SDS011;4820;50.870;4.702;2023-03-31T07:43:51;11.98;;;3.70;;
9563;SDS011;4820;50.870;4.702;2023-03-31T07:46:24;12.55;;;3.42;;
9563;SDS011;4820;50.870;4.702;2023-03-31T07:48:52;11.20;;;3.90;;
9563;SDS011;4820;50.870;4.702;2023-03-31T07:51:21;9.13;;;3.42;;
9563;SDS011;4820;50.870;4.702;2023-03-31T07:53:50;10.80;;;3.35;;
9563;SDS011;4820;50.870;4.702;2023-03-31T07:56:17;11.10;;;3.10;;
9563;SDS011;4820;50.870;4.702;2023-03-31T07:58:45;12.82;;;3.42;;
9563;SDS011;4820;50.870;4.702;2023-03-31T08:01:16;13.73;;;3.70;;
9563;SDS011;4820;50.870;4.702;2023-03-31T08:03:47;12.05;;;3.72;;
9563;SDS011;4820;50.870;4.702;2023-03-31T08:06:17;12.77;;;3.75;;
9563;SDS011;4820;50.870;4.702;2023-03-31T08:08:46;11.50;;;3.35;;
9563;SDS011;4820;50.870;4.702;2023-03-31T08:11:12;11.75;;;3.55;;
9563;SDS011;4820;50.870;4.702;2023-03-31T08:13:38;13.70;;;4.22;;
9563;SDS011;4820;50.870;4.702;2023-03-31T08:16:03;10.20;;;4.10;;
9563;SDS011;4820;50.870;4.702;2023-03-31T08:18:29;12.18;;;4.20;;
9563;SDS011;4820;50.870;4.702;2023-03-31T08:20:55;16.27;;;3.97;;
9563;SDS011;4820;50.870;4.702;2023-03-31T08:23:22;14.70;;;4.00;;
9563;SDS011;4820;50.870;4.702;2023-03-31T08:25:48;13.05;;;3.90;;
9563;SDS011;4820;50.870;4.702;2023-03-31T08:28:14;18.00;;;3.92;;
9563;SDS011;4820;50.870;4.702;2023-03-31T08:30:40;11.07;;;3.53;;
9563;SDS011;4820;50.870;4.702;2023-03-31T08:33:06;12.07;;;4.10;;
9563;SDS011;4820;50.870;4.702;2023-03-31T08:35:35;13.00;;;3.50;;
9563;SDS011;4820;50.870;4.702;2023-03-31T08:38:02;12.95;;;4.00;;
9563;SDS011;4820;50.870;4.702;2023-03-31T08:40:29;12.35;;;3.83;;
9563;SDS011;4820;50.870;4.702;2023-03-31T08:42:58;12.40;;;3.33;;
9563;SDS011;4820;50.870;4.702;2023-03-31T08:45:30;11.55;;;3.78;;
9563;SDS011;4820;50.870;4.702;2023-03-31T08:48:04;15.95;;;3.60;;
9563;SDS011;4820;50.870;4.702;2023-03-31T08:50:59;10.75;;;3.00;;
9563;SDS011;4820;50.870;4.702;2023-03-31T08:53:37;8.98;;;2.90;;
9563;SDS011;4820;50.870;4.702;2023-03-31T08:56:06;9.23;;;2.90;;
9563;SDS011;4820;50.870;4.702;2023-03-31T08:58:43;9.35;;;2.97;;
9563;SDS011;4820;50.870;4.702;2023-03-31T09:01:14;6.53;;;2.47;;
9563;SDS011;4820;50.870;4.702;2023-03-31T09:12:29;9.70;;;3.00;;
9563;SDS011;4820;50.870;4.702;2023-03-31T09:15:11;8.82;;;3.10;;
9563;SDS011;4820;50.870;4.702;2023-03-31T09:17:42;9.60;;;2.88;;
9563;SDS011;4820;50.870;4.702;2023-03-31T09:23:00;7.65;;;2.50;;
9563;SDS011;4820;50.870;4.702;2023-03-31T09:25:46;10.60;;;3.08;;
9563;SDS011;4820;50.870;4.702;2023-03-31T09:28:17;10.48;;;3.22;;
9563;SDS011;4820;50.870;4.702;2023-03-31T09:30:45;9.93;;;3.28;;
9563;SDS011;4820;50.870;4.702;2023-03-31T09:33:16;10.35;;;3.47;;
9563;SDS011;4820;50.870;4.702;2023-03-31T09:35:44;15.10;;;3.58;;
9563;SDS011;4820;50.870;4.702;2023-03-31T09:38:10;10.32;;;3.70;;
9563;SDS011;4820;50.870;4.702;2023-03-31T09:40:38;15.10;;;3.80;;
9563;SDS011;4820;50.870;4.702;2023-03-31T09:43:05;11.70;;;3.58;;
9563;SDS011;4820;50.870;4.702;2023-03-31T09:45:33;12.65;;;3.80;;
9563;SDS011;4820;50.870;4.702;2023-03-31T09:48:04;10.32;;;3.47;;
9563;SDS011;4820;50.870;4.702;2023-03-31T09:50:39;11.77;;;3.60;;
9563;SDS011;4820;50.870;4.702;2023-03-31T09:53:14;10.88;;;3.40;;
9563;SDS011;4820;50.870;4.702;2023-03-31T09:55:53;12.73;;;4.00;;
9563;SDS011;4820;50.870;4.702;2023-03-31T09:58:24;13.40;;;4.20;;
9563;SDS011;4820;50.870;4.702;2023-03-31T10:01:02;12.75;;;3.83;;
9563;SDS011;4820;50.870;4.702;2023-03-31T10:03:30;14.00;;;3.88;;
9563;SDS011;4820;50.870;4.702;2023-03-31T10:06:01;17.23;;;4.18;;
9563;SDS011;4820;50.870;4.702;2023-03-31T10:08:41;15.27;;;4.72;;
9563;SDS011;4820;50.870;4.702;2023-03-31T10:11:11;14.07;;;3.90;;
9563;SDS011;4820;50.870;4.702;2023-03-31T10:13:45;15.57;;;3.88;;
9563;SDS011;4820;50.870;4.702;2023-03-31T10:16:19;11.15;;;3.75;;
9563;SDS011;4820;50.870;4.702;2023-03-31T10:18:47;13.32;;;4.60;;
9563;SDS011;4820;50.870;4.702;2023-03-31T10:21:20;16.42;;;4.28;;
9563;SDS011;4820;50.870;4.702;2023-03-31T10:23:51;12.85;;;3.38;;
9563;SDS011;4820;50.870;4.702;2023-03-31T10:26:20;15.25;;;4.13;;
9563;SDS011;4820;50.870;4.702;2023-03-31T10:28:50;13.27;;;3.75;;
9563;SDS011;4820;50.870;4.702;2023-03-31T10:31:33;12.02;;;3.70;;
9563;SDS011;4820;50.870;4.702;2023-03-31T10:34:07;11.80;;;3.70;;
9563;SDS011;4820;50.870;4.702;2023-03-31T10:36:47;14.15;;;3.47;;
9563;SDS011;4820;50.870;4.702;2023-03-31T10:39:14;15.55;;;3.85;;
9563;SDS011;4820;50.870;4.702;2023-03-31T10:41:42;10.10;;;3.08;;
9563;SDS011;4820;50.870;4.702;2023-03-31T10:44:22;10.73;;;3.33;;
9563;SDS011;4820;50.870;4.702;2023-03-31T10:47:04;9.35;;;3.20;;
9563;SDS011;4820;50.870;4.702;2023-03-31T10:49:41;11.15;;;3.78;;
9563;SDS011;4820;50.870;4.702;2023-03-31T10:52:21;10.88;;;3.22;;
9563;SDS011;4820;50.870;4.702;2023-03-31T10:54:55;12.45;;;3.80;;
9563;SDS011;4820;50.870;4.702;2023-03-31T10:57:46;13.95;;;3.88;;
9563;SDS011;4820;50.870;4.702;2023-03-31T11:00:28;12.25;;;3.53;;
9563;SDS011;4820;50.870;4.702;2023-03-31T11:09:28;11.80;;;3.67;;
9563;SDS011;4820;50.870;4.702;2023-03-31T11:16:54;13.15;;;3.35;;
9563;SDS011;4820;50.870;4.702;2023-03-31T11:24:38;12.10;;;3.33;;
9563;SDS011;4820;50.870;4.702;2023-03-31T11:30:43;12.52;;;3.25;;
9563;SDS011;4820;50.870;4.702;2023-03-31T11:42:07;9.55;;;2.72;;
9563;SDS011;4820;50.870;4.702;2023-03-31T11:44:57;7.50;;;2.60;;
9563;SDS011;4820;50.870;4.702;2023-03-31T11:47:31;10.43;;;3.10;;
9563;SDS011;4820;50.870;4.702;2023-03-31T11:50:09;10.30;;;2.92;;
9563;SDS011;4820;50.870;4.702;2023-03-31T11:52:37;8.60;;;2.97;;
9563;SDS011;4820;50.870;4.702;2023-03-31T11:57:41;10.90;;;2.80;;
9563;SDS011;4820;50.870;4.702;2023-03-31T12:05:32;7.50;;;2.53;;
9563;SDS011;4820;50.870;4.702;2023-03-31T12:08:10;7.63;;;2.50;;
9563;SDS011;4820;50.870;4.702;2023-03-31T12:10:59;9.55;;;2.70;;
9563;SDS011;4820;50.870;4.702;2023-03-31T12:13:49;7.63;;;2.70;;
9563;SDS011;4820;50.870;4.702;2023-03-31T12:16:26;8.57;;;2.40;;
9563;SDS011;4820;50.870;4.702;2023-03-31T12:19:05;9.75;;;3.05;;
9563;SDS011;4820;50.870;4.702;2023-03-31T12:21:33;7.50;;;2.58;;
9563;SDS011;4820;50.870;4.702;2023-03-31T12:24:01;8.85;;;3.10;;
9563;SDS011;4820;50.870;4.702;2023-03-31T12:26:42;10.10;;;3.08;;
9563;SDS011;4820;50.870;4.702;2023-03-31T12:29:35;9.82;;;2.35;;
9563;SDS011;4820;50.870;4.702;2023-03-31T12:32:16;10.13;;;3.13;;
9563;SDS011;4820;50.870;4.702;2023-03-31T12:34:47;9.98;;;2.60;;
9563;SDS011;4820;50.870;4.702;2023-03-31T12:51:57;11.40;;;2.42;;
9563;SDS011;4820;50.870;4.702;2023-03-31T12:59:31;6.40;;;2.40;;
9563;SDS011;4820;50.870;4.702;2023-03-31T13:04:34;6.97;;;2.15;;
9563;SDS011;4820;50.870;4.702;2023-03-31T13:07:02;7.28;;;2.25;;
9563;SDS011;4820;50.870;4.702;2023-03-31T13:09:41;4.90;;;2.05;;
9563;SDS011;4820;50.870;4.702;2023-03-31T13:12:17;6.05;;;2.20;;
9563;SDS011;4820;50.870;4.702;2023-03-31T13:14:46;6.38;;;2.10;;
9563;SDS011;4820;50.870;4.702;2023-03-31T13:17:25;6.72;;;2.30;;
9563;SDS011;4820;50.870;4.702;2023-03-31T13:19:54;4.43;;;1.75;;
9563;SDS011;4820;50.870;4.702;2023-03-31T13:22:39;4.03;;;1.60;;
9563;SDS011;4820;50.870;4.702;2023-03-31T13:27:54;4.10;;;1.80;;
9563;SDS011;4820;50.870;4.702;2023-03-31T13:33:13;3.97;;;1.48;;
9563;SDS011;4820;50.870;4.702;2023-03-31T13:36:21;3.05;;;1.30;;
9563;SDS011;4820;50.870;4.702;2023-03-31T13:53:37;3.42;;;1.70;;
9563;SDS011;4820;50.870;4.702;2023-03-31T14:13:09;4.57;;;1.90;;
9563;SDS011;4820;50.870;4.702;2023-03-31T14:15:42;5.22;;;1.83;;
9563;SDS011;4820;50.870;4.702;2023-03-31T14:18:23;4.05;;;1.92;;
9563;SDS011;4820;50.870;4.702;2023-03-31T14:26:26;2.65;;;1.17;;
9563;SDS011;4820;50.870;4.702;2023-03-31T14:32:21;2.15;;;0.82;;
9563;SDS011;4820;50.870;4.702;2023-03-31T14:35:07;3.45;;;0.85;;
9563;SDS011;4820;50.870;4.702;2023-03-31T14:37:42;1.90;;;0.85;;
9563;SDS011;4820;50.870;4.702;2023-03-31T14:40:12;3.08;;;1.02;;
9563;SDS011;4820;50.870;4.702;2023-03-31T14:42:40;3.22;;;0.95;;
9563;SDS011;4820;50.870;4.702;2023-03-31T14:45:18;1.05;;;0.70;;
9563;SDS011;4820;50.870;4.702;2023-03-31T14:47:56;1.25;;;0.85;;
9563;SDS011;4820;50.870;4.702;2023-03-31T14:50:34;1.40;;;0.68;;
9563;SDS011;4820;50.870;4.702;2023-03-31T14:53:00;2.47;;;0.88;;
9563;SDS011;4820;50.870;4.702;2023-03-31T14:55:30;1.90;;;0.88;;
9563;SDS011;4820;50.870;4.702;2023-03-31T14:57:59;2.17;;;0.90;;
9563;SDS011;4820;50.870;4.702;2023-03-31T15:00:26;3.38;;;1.00;;
9563;SDS011;4820;50.870;4.702;2023-03-31T15:02:55;3.83;;;0.90;;
9563;SDS011;4820;50.870;4.702;2023-03-31T15:07:58;2.97;;;0.93;;
9563;SDS011;4820;50.870;4.702;2023-03-31T15:10:29;1.40;;;0.77;;
9563;SDS011;4820;50.870;4.702;2023-03-31T15:13:14;2.45;;;0.90;;
9563;SDS011;4820;50.870;4.702;2023-03-31T15:15:43;2.17;;;0.90;;
9563;SDS011;4820;50.870;4.702;2023-03-31T15:18:11;3.22;;;1.38;;
9563;SDS011;4820;50.870;4.702;2023-03-31T15:20:39;1.98;;;1.25;;
9563;SDS011;4820;50.870;4.702;2023-03-31T15:23:19;1.58;;;1.02;;
9563;SDS011;4820;50.870;4.702;2023-03-31T15:25:54;2.63;;;1.00;;
9563;SDS011;4820;50.870;4.702;2023-03-31T15:28:30;3.13;;;0.93;;
9563;SDS011;4820;50.870;4.702;2023-03-31T15:31:06;3.00;;;0.93;;
9563;SDS011;4820;50.870;4.702;2023-03-31T15:33:33;4.15;;;1.08;;
9563;SDS011;4820;50.870;4.702;2023-03-31T15:36:01;3.08;;;1.10;;
9563;SDS011;4820;50.870;4.702;2023-03-31T15:38:27;2.45;;;1.00;;
9563;SDS011;4820;50.870;4.702;2023-03-31T15:40:56;1.90;;;1.00;;
9563;SDS011;4820;50.870;4.702;2023-03-31T15:43:31;2.53;;;1.00;;
9563;SDS011;4820;50.870;4.702;2023-03-31T15:46:10;3.70;;;1.08;;
9563;SDS011;4820;50.870;4.702;2023-03-31T15:48:50;4.57;;;1.20;;
9563;SDS011;4820;50.870;4.702;2023-03-31T15:51:18;4.63;;;1.30;;
9563;SDS011;4820;50.870;4.702;2023-03-31T15:53:50;3.22;;;1.02;;
9563;SDS011;4820;50.870;4.702;2023-03-31T15:56:33;4.20;;;1.10;;
9563;SDS011;4820;50.870;4.702;2023-03-31T15:59:05;2.67;;;1.20;;
9563;SDS011;4820;50.870;4.702;2023-03-31T16:01:44;4.53;;;1.60;;
9563;SDS011;4820;50.870;4.702;2023-03-31T16:04:13;2.33;;;1.42;;
9563;SDS011;4820;50.870;4.702;2023-03-31T16:06:50;2.70;;;1.10;;
9563;SDS011;4820;50.870;4.702;2023-03-31T16:11:52;3.10;;;1.23;;
9563;SDS011;4820;50.870;4.702;2023-03-31T16:14:27;4.07;;;1.30;;
9563;SDS011;4820;50.870;4.702;2023-03-31T16:16:56;3.72;;;1.35;;
9563;SDS011;4820;50.870;4.702;2023-03-31T16:19:29;4.95;;;1.65;;
9563;SDS011;4820;50.870;4.702;2023-03-31T16:22:03;5.05;;;1.70;;
9563;SDS011;4820;50.870;4.702;2023-03-31T16:24:30;6.40;;;1.60;;
9563;SDS011;4820;50.870;4.702;2023-03-31T16:26:59;4.47;;;1.55;;
9563;SDS011;4820;50.870;4.702;2023-03-31T16:29:31;3.83;;;1.50;;
9563;SDS011;4820;50.870;4.702;2023-03-31T16:34:52;4.63;;;1.38;;
9563;SDS011;4820;50.870;4.702;2023-03-31T16:37:26;5.22;;;1.92;;
9563;SDS011;4820;50.870;4.702;2023-03-31T16:39:53;4.30;;;1.83;;
9563;SDS011;4820;50.870;4.702;2023-03-31T16:42:21;4.28;;;1.23;;
9563;SDS011;4820;50.870;4.702;2023-03-31T16:44:49;6.90;;;1.70;;
9563;SDS011;4820;50.870;4.702;2023-03-31T16:47:14;6.22;;;1.83;;
9563;SDS011;4820;50.870;4.702;2023-03-31T16:49:40;4.80;;;1.35;;
9563;SDS011;4820;50.870;4.702;2023-03-31T16:52:06;5.15;;;1.60;;
9563;SDS011;4820;50.870;4.702;2023-03-31T16:54:36;5.28;;;1.58;;
9563;SDS011;4820;50.870;4.702;2023-03-31T16:57:02;5.80;;;2.25;;
9563;SDS011;4820;50.870;4.702;2023-03-31T16:59:27;6.78;;;2.03;;
9563;SDS011;4820;50.870;4.702;2023-03-31T17:01:54;5.07;;;1.55;;
9563;SDS011;4820;50.870;4.702;2023-03-31T17:04:20;5.38;;;1.90;;
9563;SDS011;4820;50.870;4.702;2023-03-31T17:06:47;5.47;;;1.40;;
9563;SDS011;4820;50.870;4.702;2023-03-31T17:09:12;2.75;;;1.17;;
9563;SDS011;4820;50.870;4.702;2023-03-31T17:11:38;7.53;;;1.90;;
9563;SDS011;4820;50.870;4.702;2023-03-31T17:14:03;4.75;;;1.67;;
9563;SDS011;4820;50.870;4.702;2023-03-31T17:16:30;4.07;;;1.60;;
9563;SDS011;4820;50.870;4.702;2023-03-31T17:18:56;4.55;;;1.70;;
9563;SDS011;4820;50.870;4.702;2023-03-31T17:21:23;3.58;;;1.58;;
9563;SDS011;4820;50.870;4.702;2023-03-31T17:23:50;4.10;;;1.65;;
9563;SDS011;4820;50.870;4.702;2023-03-31T17:26:15;4.50;;;1.52;;
9563;SDS011;4820;50.870;4.702;2023-03-31T17:28:42;4.90;;;1.70;;
9563;SDS011;4820;50.870;4.702;2023-03-31T17:31:16;3.75;;;1.38;;
9563;SDS011;4820;50.870;4.702;2023-03-31T17:33:43;2.50;;;1.40;;
9563;SDS011;4820;50.870;4.702;2023-03-31T17:36:09;5.60;;;1.67;;
9563;SDS011;4820;50.870;4.702;2023-03-31T17:38:35;6.13;;;1.83;;
9563;SDS011;4820;50.870;4.702;2023-03-31T17:41:05;4.60;;;1.80;;
9563;SDS011;4820;50.870;4.702;2023-03-31T17:43:32;5.32;;;1.58;;
9563;SDS011;4820;50.870;4.702;2023-03-31T17:46:06;4.57;;;1.98;;
9563;SDS011;4820;50.870;4.702;2023-03-31T17:48:34;5.07;;;1.75;;
9563;SDS011;4820;50.870;4.702;2023-03-31T17:51:05;9.13;;;2.35;;
9563;SDS011;4820;50.870;4.702;2023-03-31T17:53:33;7.80;;;1.92;;
9563;SDS011;4820;50.870;4.702;2023-03-31T17:56:01;5.45;;;2.00;;
9563;SDS011;4820;50.870;4.702;2023-03-31T17:58:28;7.55;;;2.05;;
9563;SDS011;4820;50.870;4.702;2023-03-31T18:00:54;5.80;;;1.92;;
9563;SDS011;4820;50.870;4.702;2023-03-31T18:03:19;6.38;;;1.95;;
9563;SDS011;4820;50.870;4.702;2023-03-31T18:05:46;5.95;;;1.90;;
9563;SDS011;4820;50.870;4.702;2023-03-31T18:08:11;7.45;;;2.28;;
9563;SDS011;4820;50.870;4.702;2023-03-31T18:10:38;6.40;;;2.35;;
9563;SDS011;4820;50.870;4.702;2023-03-31T18:13:04;8.85;;;2.28;;
9563;SDS011;4820;50.870;4.702;2023-03-31T18:15:31;8.02;;;2.30;;
9563;SDS011;4820;50.870;4.702;2023-03-31T18:17:56;5.40;;;2.03;;
9563;SDS011;4820;50.870;4.702;2023-03-31T18:20:23;7.50;;;2.53;;
9563;SDS011;4820;50.870;4.702;2023-03-31T18:22:48;7.95;;;2.50;;
9563;SDS011;4820;50.870;4.702;2023-03-31T18:25:16;6.78;;;2.45;;
9563;SDS011;4820;50.870;4.702;2023-03-31T18:27:42;10.18;;;2.70;;
9563;SDS011;4820;50.870;4.702;2023-03-31T18:30:11;7.88;;;2.55;;